createdAt,value
2022-07-26T06:53:03.560Z,97865.00
2022-07-26T06:58:24.913Z,97858.00
2022-07-26T07:03:47.959Z,97859.00
2022-07-26T07:09:09.123Z,97865.00
2022-07-26T07:20:26.730Z,97856.00
2022-07-26T07:25:48.883Z,97862.00
2022-07-26T07:31:10.558Z,97860.00
2022-07-26T07:36:32.064Z,97864.00
2022-07-26T07:41:53.656Z,97869.00
2022-07-26T07:47:15.268Z,97869.00
2022-07-26T07:52:37.072Z,97860.00
2022-07-26T07:57:58.773Z,97861.00
2022-07-26T08:03:21.080Z,97852.00
2022-07-26T08:08:43.058Z,97857.00
2022-07-26T08:14:04.573Z,97859.00
2022-07-26T08:19:26.458Z,97866.00
2022-07-26T08:25:03.507Z,97860.00
2022-07-26T08:30:25.133Z,97860.00
2022-07-26T08:35:46.442Z,97866.00
2022-07-26T08:41:08.188Z,97867.00
2022-07-26T08:46:30.248Z,97878.00
2022-07-26T08:51:54.014Z,97884.00
2022-07-26T08:57:15.747Z,97883.00
2022-07-26T09:02:43.635Z,97882.00
2022-07-26T09:08:26.772Z,97889.00
2022-07-26T09:13:55.003Z,97882.00
2022-07-26T09:19:23.724Z,97897.00
2022-07-26T09:24:47.243Z,97890.00
2022-07-26T09:30:09.545Z,97904.00
2022-07-26T09:35:52.306Z,97899.00
2022-07-26T09:41:30.515Z,97905.00
2022-07-26T09:46:59.648Z,97918.00
2022-07-26T09:52:22.205Z,97908.00
2022-07-26T09:57:43.515Z,97911.00
2022-07-26T10:03:06.220Z,97921.00
2022-07-26T10:08:28.142Z,97899.00
2022-07-26T10:13:49.408Z,97925.00
2022-07-26T10:19:39.304Z,97922.00
2022-07-26T10:25:17.897Z,97930.00
2022-07-26T10:30:39.383Z,97923.00
2022-07-26T10:36:00.972Z,97919.00
2022-07-26T10:41:40.246Z,97907.00
2022-07-26T10:47:07.581Z,97915.00
2022-07-26T10:52:31.977Z,97917.00
2022-07-26T10:57:53.695Z,97925.00
2022-07-26T11:03:15.122Z,97927.00
2022-07-26T11:08:37.575Z,97912.00
2022-07-26T11:14:15.179Z,97922.00
2022-07-26T11:19:40.562Z,97930.00
2022-07-26T11:25:02.223Z,97924.00
2022-07-26T11:30:23.605Z,97935.00
2022-07-26T11:35:52.430Z,97920.00
2022-07-26T11:41:15.532Z,97917.00
2022-07-26T11:46:40.234Z,97899.00
2022-07-26T11:52:03.102Z,97909.00
2022-07-26T11:57:30.337Z,97918.00
2022-07-26T12:02:55.911Z,97912.00
2022-07-26T12:08:17.742Z,97904.00
2022-07-26T12:14:00.504Z,97902.00
2022-07-26T12:19:21.564Z,97899.00
2022-07-26T12:24:51.905Z,97905.00
2022-07-26T12:30:14.475Z,97916.00
2022-07-26T12:35:37.116Z,97908.00
2022-07-26T12:40:58.538Z,97915.00
2022-07-26T12:46:20.257Z,97902.00
2022-07-26T12:51:41.735Z,97909.00
2022-07-26T12:57:03.438Z,97906.00
2022-07-26T13:02:25.476Z,97906.00
2022-07-26T13:07:47.000Z,97904.00
2022-07-26T13:13:08.632Z,97909.00
2022-07-26T13:18:30.183Z,97912.00
2022-07-26T13:23:51.810Z,97910.00
2022-07-26T13:29:14.904Z,97915.00
2022-07-26T13:34:36.464Z,97919.00
2022-07-26T13:39:58.028Z,97932.00
2022-07-26T13:45:19.503Z,97922.00
2022-07-26T13:50:40.991Z,97920.00
2022-07-26T13:56:02.804Z,97932.00
2022-07-26T14:01:44.634Z,97936.00
2022-07-26T14:07:05.322Z,97941.00
2022-07-26T14:12:26.703Z,97939.00
2022-07-26T14:17:48.181Z,97945.00
2022-07-26T14:23:09.982Z,97934.00
2022-07-26T14:28:31.445Z,97939.00
2022-07-26T14:33:53.220Z,97942.00
2022-07-26T14:39:14.473Z,97944.00
2022-07-26T14:44:36.242Z,97943.00
2022-07-26T14:50:08.125Z,97955.00
2022-07-26T14:55:30.058Z,97946.00
2022-07-26T15:00:53.105Z,97941.00
2022-07-26T15:06:14.496Z,97947.00
2022-07-26T15:11:39.003Z,97942.00
2022-07-26T15:17:00.311Z,97944.00
2022-07-26T15:22:21.943Z,97950.00
2022-07-26T15:27:43.985Z,97944.00
2022-07-26T15:33:05.598Z,97957.00
2022-07-26T15:38:27.104Z,97953.00
2022-07-26T15:43:49.382Z,97955.00
2022-07-26T15:49:13.315Z,97966.00
2022-07-26T15:54:35.433Z,97978.00
2022-07-26T15:59:56.897Z,97982.00
2022-07-26T16:05:18.727Z,97977.00
2022-07-26T16:10:40.359Z,97985.00
2022-07-26T16:16:03.392Z,97990.00
2022-07-26T16:21:25.195Z,97989.00
2022-07-26T16:26:47.767Z,97986.00
2022-07-26T16:32:11.438Z,97990.00
2022-07-26T16:37:33.235Z,97999.00
2022-07-26T16:42:54.927Z,97998.00
2022-07-26T16:48:17.373Z,98009.00
2022-07-26T16:53:38.622Z,98012.00
2022-07-26T16:58:59.916Z,98015.00
2022-07-26T17:04:21.729Z,98013.00
2022-07-26T17:09:43.244Z,98013.00
2022-07-26T17:15:06.219Z,98025.00
2022-07-26T17:20:27.935Z,98021.00
2022-07-26T17:25:49.333Z,98024.00
2022-07-26T17:31:10.725Z,98030.00
2022-07-26T17:36:32.674Z,98041.00
2022-07-26T17:41:54.558Z,98039.00
2022-07-26T17:47:27.689Z,98044.00
2022-07-26T17:52:51.273Z,98040.00
2022-07-26T17:58:12.570Z,98046.00
2022-07-26T18:03:34.152Z,98045.00
2022-07-26T18:08:55.646Z,98047.00
2022-07-26T18:14:17.312Z,98046.00
2022-07-26T18:19:38.994Z,98044.00
2022-07-26T18:25:00.376Z,98048.00
2022-07-26T18:30:21.828Z,98054.00
2022-07-26T18:35:46.519Z,98048.00
2022-07-26T18:41:08.245Z,98057.00
2022-07-26T18:46:29.960Z,98055.00
2022-07-26T18:51:51.812Z,98066.00
2022-07-26T18:57:14.197Z,98061.00
2022-07-26T19:02:35.658Z,98066.00
2022-07-26T19:07:57.437Z,98059.00
2022-07-26T19:13:19.156Z,98067.00
2022-07-26T19:18:40.673Z,98072.00
2022-07-26T19:24:09.763Z,98079.00
2022-07-26T19:29:31.168Z,98078.00
2022-07-26T19:34:52.513Z,98079.00
2022-07-26T19:40:14.716Z,98083.00
2022-07-26T19:45:36.417Z,98086.00
2022-07-26T19:50:57.840Z,98086.00
2022-07-26T19:56:19.574Z,98090.00
2022-07-26T20:01:41.515Z,98099.00
